Time;durP1;ratioP1;P1;durP2;ratioP2;P2;SDS_P1;SDS_P2;PMS_P1;PMS_P2;Temp;Humidity;BMP_temperature;BMP_pressure;BME280_temperature;BME280_humidity;BME280_pressure;Samples;Min_cycle;Max_cycle;Signal;HPM_P1;HPM_P2
2022/01/26 00:05:47;;;;;;;64.27;33.40;;;3.70;99.90;;;;;;2614014;54;20461;-82
2022/01/26 00:06:21;;;;;;;65.77;33.70;;;3.60;99.90;;;;;;2616026;47;20423;-81
2022/01/26 00:08:48;;;;;;;78.27;35.13;;;3.80;99.90;;;;;;2616126;39;20806;-82
2022/01/26 00:11:14;;;;;;;67.17;37.00;;;3.70;99.90;;;;;;2615810;47;20420;-82
2022/01/26 00:14:12;;;;;;;71.60;33.60;;;3.80;99.90;;;;;;2616875;54;20568;-81
2022/01/26 00:16:41;;;;;;;69.33;35.73;;;3.90;99.90;;;;;;2616219;39;20621;-83
2022/01/26 00:19:10;;;;;;;68.23;33.17;;;3.80;99.90;;;;;;2613608;47;20477;-83
2022/01/26 00:21:46;;;;;;;69.80;34.97;;;3.70;99.90;;;;;;2614158;39;20805;-82
2022/01/26 00:29:32;;;;;;;63.10;30.57;;;3.90;99.90;;;;;;2614615;54;20423;-81
2022/01/26 00:40:37;;;;;;;65.80;37.40;;;4.00;99.90;;;;;;2613647;54;20422;-81
2022/01/26 00:43:14;;;;;;;73.40;35.40;;;4.10;99.90;;;;;;2614026;39;20446;-82
2022/01/26 00:45:41;;;;;;;74.17;33.60;;;4.30;99.90;;;;;;2613567;39;21779;-82
2022/01/26 00:48:10;;;;;;;75.03;38.17;;;4.40;99.90;;;;;;2613979;47;20988;-81
2022/01/26 00:50:39;;;;;;;67.00;34.33;;;4.00;99.90;;;;;;2614915;54;20960;-82
2022/01/26 00:53:06;;;;;;;75.20;34.93;;;4.20;99.90;;;;;;2613056;47;20964;-81
2022/01/26 00:55:33;;;;;;;67.37;35.17;;;4.10;99.90;;;;;;2614364;54;20403;-83
2022/01/26 00:57:59;;;;;;;66.97;36.53;;;3.90;99.90;;;;;;2614574;39;20715;-82
2022/01/26 01:00:27;;;;;;;72.10;36.93;;;3.90;99.90;;;;;;2614327;54;20408;-83
2022/01/26 01:02:54;;;;;;;67.57;35.27;;;3.90;99.90;;;;;;2614274;54;20154;-81
2022/01/26 01:05:25;;;;;;;65.97;33.40;;;3.90;99.90;;;;;;2614335;47;20423;-82
2022/01/26 01:07:58;;;;;;;59.00;29.23;;;3.80;99.90;;;;;;2614348;54;20453;-80
2022/01/26 01:10:25;;;;;;;75.17;36.60;;;3.70;99.90;;;;;;2613591;54;20563;-82
2022/01/26 01:12:55;;;;;;;76.03;38.20;;;3.70;99.90;;;;;;2614725;39;20684;-82
2022/01/26 01:15:25;;;;;;;72.13;38.03;;;3.70;99.90;;;;;;2616244;54;20446;-81
2022/01/26 01:18:01;;;;;;;72.23;36.73;;;3.80;99.90;;;;;;2616007;54;20467;-81
2022/01/26 01:28:31;;;;;;;76.60;36.83;;;3.50;99.90;;;;;;2615248;54;20447;-83
2022/01/26 01:31:08;;;;;;;71.23;33.80;;;3.60;99.90;;;;;;2614565;54;20964;-81
2022/01/26 01:33:38;;;;;;;66.17;33.00;;;3.80;99.90;;;;;;2614051;54;20567;-82
2022/01/26 01:36:06;;;;;;;74.23;34.27;;;3.80;99.90;;;;;;2614217;47;20542;-81
2022/01/26 01:38:34;;;;;;;74.23;36.90;;;3.90;99.90;;;;;;2615520;47;20520;-81
2022/01/26 01:41:01;;;;;;;58.60;31.13;;;3.90;99.90;;;;;;2614889;54;20411;-82
2022/01/26 01:43:51;;;;;;;75.50;35.03;;;3.70;99.90;;;;;;2614653;47;20418;-82
2022/01/26 01:46:17;;;;;;;83.57;35.57;;;3.60;99.90;;;;;;2613393;54;20416;-79
2022/01/26 01:48:43;;;;;;;75.00;31.80;;;3.60;99.90;;;;;;2613379;54;20407;-81
2022/01/26 01:51:11;;;;;;;79.30;35.30;;;3.60;99.90;;;;;;2614253;54;20935;-82
2022/01/26 01:53:42;;;;;;;65.97;27.43;;;3.50;99.90;;;;;;2615520;47;20398;-80
2022/01/26 01:56:14;;;;;;;66.67;30.73;;;3.50;99.90;;;;;;2616737;54;20969;-81
2022/01/26 01:58:40;;;;;;;67.50;33.13;;;3.50;99.90;;;;;;2621189;47;20439;-81
2022/01/26 02:01:08;;;;;;;68.57;34.00;;;3.40;99.90;;;;;;2621524;54;20427;-81
2022/01/26 02:03:34;;;;;;;72.23;32.70;;;3.50;99.90;;;;;;2621289;54;20412;-80
2022/01/26 02:06:00;;;;;;;75.57;34.23;;;3.50;99.90;;;;;;2620656;47;20427;-80
2022/01/26 02:08:26;;;;;;;62.57;31.70;;;3.50;99.90;;;;;;2624862;47;20547;-81
2022/01/26 02:10:52;;;;;;;70.33;36.37;;;3.50;99.90;;;;;;2625221;47;20544;-80
2022/01/26 02:13:34;;;;;;;74.37;32.77;;;3.50;99.90;;;;;;2627098;54;20134;-82
2022/01/26 02:21:59;;;;;;;75.30;37.00;;;3.50;99.90;;;;;;2627734;54;20422;-81
2022/01/26 03:04:54;;;;;;;87.70;37.93;;;3.60;99.90;;;;;;2613132;54;20451;-82
2022/01/26 03:07:38;;;;;;;83.63;38.90;;;3.70;99.90;;;;;;2613420;47;20169;-81
2022/01/26 03:10:15;;;;;;;56.93;30.23;;;3.70;99.90;;;;;;2613720;39;20965;-82
2022/01/26 03:12:51;;;;;;;85.33;41.27;;;3.60;99.90;;;;;;2614759;39;20443;-82
2022/01/26 03:16:26;;;;;;;76.03;35.63;;;3.60;99.90;;;;;;2614130;54;20958;-82
2022/01/26 03:20:46;;;;;;;80.73;40.60;;;3.50;99.90;;;;;;2613793;39;20949;-82
2022/01/26 03:28:59;;;;;;;80.43;38.97;;;3.30;99.90;;;;;;2614629;39;20803;-81
2022/01/26 03:34:08;;;;;;;83.30;39.37;;;3.40;99.90;;;;;;2615479;31;20873;-82
2022/01/26 03:36:44;;;;;;;85.20;40.67;;;3.40;99.90;;;;;;2615292;54;20403;-82
2022/01/26 03:39:14;;;;;;;74.83;37.13;;;3.30;99.90;;;;;;2614733;54;20379;-82
2022/01/26 03:41:47;;;;;;;89.97;39.03;;;3.20;99.90;;;;;;2613916;54;20432;-81
2022/01/26 03:44:14;;;;;;;76.93;30.20;;;3.30;99.90;;;;;;2613594;46;20394;-80
2022/01/26 03:46:41;;;;;;;70.43;33.90;;;3.30;99.90;;;;;;2614169;54;20515;-82
2022/01/26 03:49:09;;;;;;;59.80;30.00;;;3.30;99.90;;;;;;2616465;54;20427;-80
2022/01/26 03:51:35;;;;;;;70.10;32.10;;;3.20;99.90;;;;;;2615198;46;20991;-81
2022/01/26 03:54:04;;;;;;;95.90;42.80;;;3.10;99.90;;;;;;2613729;47;20535;-81
2022/01/26 03:56:30;;;;;;;69.97;25.10;;;3.20;99.90;;;;;;2614936;39;20763;-81
2022/01/26 03:58:56;;;;;;;56.00;24.23;;;3.20;99.90;;;;;;2615090;47;20408;-81
2022/01/26 04:01:22;;;;;;;91.83;43.80;;;3.10;99.90;;;;;;2616223;54;20443;-82
2022/01/26 04:03:48;;;;;;;96.27;45.30;;;3.20;99.90;;;;;;2615330;54;20163;-81
2022/01/26 04:06:15;;;;;;;95.47;45.23;;;3.20;99.90;;;;;;2615224;54;20395;-82
2022/01/26 04:08:43;;;;;;;89.43;39.30;;;3.20;99.90;;;;;;2615182;39;20886;-81
2022/01/26 04:11:35;;;;;;;94.63;42.33;;;3.40;99.90;;;;;;2613941;47;20439;-81
2022/01/26 04:13:58;;;;;;;113.27;47.87;;;3.30;99.90;;;;;;2613148;47;20449;-81
2022/01/26 04:16:25;;;;;;;103.83;47.63;;;3.30;99.90;;;;;;2614619;54;20398;-81
2022/01/26 04:18:53;;;;;;;54.67;30.53;;;3.30;99.90;;;;;;2613678;54;20390;-81
2022/01/26 04:21:30;;;;;;;99.90;45.77;;;3.20;99.90;;;;;;2614030;39;20823;-81
2022/01/26 04:24:13;;;;;;;85.30;40.03;;;3.20;99.90;;;;;;2613857;54;20398;-82
2022/01/26 04:29:15;;;;;;;85.13;36.70;;;3.20;99.90;;;;;;2615437;39;20879;-81
2022/01/26 04:31:41;;;;;;;106.07;45.47;;;3.10;99.90;;;;;;2616233;39;20814;-81
2022/01/26 04:34:06;;;;;;;116.43;51.20;;;3.00;99.90;;;;;;2616176;47;20411;-81
2022/01/26 04:36:42;;;;;;;106.97;47.50;;;3.20;99.90;;;;;;2616176;54;20158;-81
2022/01/26 04:39:13;;;;;;;125.70;50.10;;;3.10;99.90;;;;;;2614150;54;20154;-80
2022/01/26 04:41:59;;;;;;;88.20;39.13;;;3.10;99.90;;;;;;2614581;39;20975;-81
2022/01/26 04:44:30;;;;;;;52.07;22.80;;;3.10;99.90;;;;;;2614587;54;20554;-81
2022/01/26 04:46:56;;;;;;;115.83;51.33;;;3.00;99.90;;;;;;2615176;54;20530;-81
2022/01/26 04:49:22;;;;;;;120.07;55.47;;;3.10;99.90;;;;;;2615494;47;20992;-82
2022/01/26 04:51:48;;;;;;;134.10;53.27;;;3.10;99.90;;;;;;2615300;54;20419;-81
2022/01/26 04:54:14;;;;;;;141.43;58.80;;;3.10;99.90;;;;;;2615525;54;20415;-82
2022/01/26 04:56:40;;;;;;;98.73;38.87;;;3.20;99.90;;;;;;2616388;54;20407;-82
2022/01/26 04:59:06;;;;;;;83.17;41.40;;;3.20;99.90;;;;;;2615050;47;20455;-80
2022/01/26 05:01:32;;;;;;;114.60;48.87;;;3.10;99.90;;;;;;2613072;47;21093;-81
2022/01/26 05:03:58;;;;;;;148.50;61.10;;;3.10;99.90;;;;;;2614872;39;20647;-82
2022/01/26 05:06:29;;;;;;;141.57;59.80;;;3.10;99.90;;;;;;2613985;54;20407;-81
2022/01/26 05:08:55;;;;;;;124.93;51.03;;;3.20;99.90;;;;;;2615057;31;20874;-81
2022/01/26 05:11:43;;;;;;;107.37;44.50;;;3.10;99.90;;;;;;2615602;47;20431;-82
2022/01/26 05:14:07;;;;;;;129.37;54.10;;;3.20;99.90;;;;;;2616343;39;20578;-82
2022/01/26 05:16:34;;;;;;;66.23;31.73;;;3.30;99.90;;;;;;2615919;47;20446;-83
2022/01/26 05:19:00;;;;;;;146.33;58.23;;;3.30;99.90;;;;;;2614368;39;20936;-82
2022/01/26 05:21:28;;;;;;;126.57;55.30;;;3.30;99.90;;;;;;2615118;47;20448;-83
2022/01/26 05:23:54;;;;;;;122.80;57.63;;;3.50;99.90;;;;;;2615586;54;20523;-83
2022/01/26 05:26:20;;;;;;;123.97;50.80;;;3.80;99.90;;;;;;2615593;54;20394;-82
2022/01/26 05:28:46;;;;;;;108.40;51.93;;;3.70;99.90;;;;;;2615744;54;20153;-82
2022/01/26 05:31:11;;;;;;;109.40;50.10;;;3.40;99.90;;;;;;2614611;46;20447;-79
2022/01/26 05:33:38;;;;;;;117.40;54.80;;;3.30;99.90;;;;;;2616067;39;20817;-82
2022/01/26 05:36:07;;;;;;;111.07;50.30;;;3.30;99.90;;;;;;2616303;47;20720;-81
2022/01/26 05:38:33;;;;;;;116.63;51.33;;;3.30;99.90;;;;;;2616140;51;20544;-83
2022/01/26 05:41:01;;;;;;;113.23;52.93;;;3.30;99.90;;;;;;2614292;54;20490;-83
2022/01/26 05:43:32;;;;;;;103.80;41.20;;;3.50;99.90;;;;;;2615634;47;20434;-81
2022/01/26 05:46:05;;;;;;;114.77;52.40;;;3.50;99.90;;;;;;2617675;54;20523;-82
2022/01/26 05:48:34;;;;;;;111.33;48.03;;;3.40;99.90;;;;;;2615554;54;20379;-82
2022/01/26 05:51:08;;;;;;;117.80;49.97;;;3.30;99.90;;;;;;2617071;54;20431;-82
2022/01/26 05:53:34;;;;;;;128.17;51.00;;;3.30;99.90;;;;;;2615419;46;20502;-82
2022/01/26 05:56:00;;;;;;;115.23;49.07;;;3.30;99.90;;;;;;2615170;54;20391;-82
2022/01/26 05:58:27;;;;;;;109.20;50.37;;;3.20;99.90;;;;;;2615749;54;20430;-82
2022/01/26 06:00:53;;;;;;;115.80;53.50;;;3.30;99.90;;;;;;2616358;54;20944;-82
2022/01/26 06:03:20;;;;;;;110.50;44.70;;;3.40;99.90;;;;;;2615095;47;20441;-82
2022/01/26 06:05:46;;;;;;;113.30;51.63;;;3.30;99.90;;;;;;2620767;47;20386;-83
2022/01/26 06:08:11;;;;;;;110.13;45.83;;;3.40;99.90;;;;;;2616780;47;20423;-81
2022/01/26 06:10:37;;;;;;;125.93;51.17;;;3.20;99.90;;;;;;2614055;47;20194;-81
2022/01/26 06:13:03;;;;;;;78.93;33.90;;;3.20;99.90;;;;;;2614395;47;20170;-80
2022/01/26 06:15:29;;;;;;;123.97;47.70;;;3.20;99.90;;;;;;2614002;47;20703;-82
2022/01/26 06:17:56;;;;;;;110.57;49.27;;;3.10;99.90;;;;;;2614126;54;20154;-81
2022/01/26 06:20:22;;;;;;;118.37;49.07;;;3.30;99.90;;;;;;2614132;54;20159;-81
2022/01/26 06:22:49;;;;;;;121.40;49.40;;;3.30;99.90;;;;;;2613248;47;20421;-82
2022/01/26 06:25:15;;;;;;;108.20;50.80;;;3.20;99.90;;;;;;2614280;54;20498;-82
2022/01/26 06:27:43;;;;;;;110.90;48.70;;;3.20;99.90;;;;;;2615443;54;20532;-82
2022/01/26 06:30:11;;;;;;;85.13;43.80;;;3.30;99.90;;;;;;2613416;46;20419;-82
2022/01/26 06:32:38;;;;;;;117.80;52.23;;;3.10;99.90;;;;;;2613122;39;20731;-80
2022/01/26 06:35:07;;;;;;;105.57;48.30;;;3.10;99.90;;;;;;2613667;47;20431;-82
2022/01/26 06:37:33;;;;;;;113.53;49.17;;;3.20;99.90;;;;;;2615483;54;20431;-81
2022/01/26 06:39:59;;;;;;;97.53;44.90;;;3.20;99.90;;;;;;2615132;39;21532;-81
2022/01/26 06:42:30;;;;;;;129.37;46.70;;;3.20;99.90;;;;;;2614748;54;20194;-81
2022/01/26 06:49:51;;;;;;;112.70;51.33;;;3.20;99.90;;;;;;2614764;54;20174;-81
2022/01/26 06:52:17;;;;;;;106.23;44.90;;;3.10;99.90;;;;;;2613870;47;21883;-84
2022/01/26 06:54:43;;;;;;;105.27;47.30;;;3.10;99.90;;;;;;2613429;54;20414;-80
2022/01/26 06:57:10;;;;;;;96.40;39.70;;;3.20;99.90;;;;;;2612743;47;20447;-82
2022/01/26 06:59:36;;;;;;;102.50;47.53;;;3.10;99.90;;;;;;2613521;54;20932;-82
2022/01/26 07:02:02;;;;;;;98.97;41.10;;;3.00;99.90;;;;;;2613021;54;20423;-79
2022/01/26 07:04:28;;;;;;;104.90;45.43;;;3.10;99.90;;;;;;2613017;47;20951;-81
2022/01/26 07:06:54;;;;;;;120.07;49.60;;;3.00;99.90;;;;;;2612729;54;20420;-80
2022/01/26 07:09:20;;;;;;;116.83;51.00;;;3.10;99.90;;;;;;2613239;54;20174;-83
2022/01/26 07:11:47;;;;;;;91.07;39.93;;;3.20;99.90;;;;;;2612725;54;20169;-83
2022/01/26 07:14:25;;;;;;;89.47;40.10;;;3.20;99.90;;;;;;2612744;47;21019;-81
2022/01/26 07:19:51;;;;;;;145.40;54.20;;;3.20;99.90;;;;;;2614307;47;20391;-81
2022/01/26 07:22:17;;;;;;;132.43;54.87;;;3.10;99.90;;;;;;2656460;36;20983;-82
2022/01/26 07:24:43;;;;;;;121.57;52.40;;;3.10;99.90;;;;;;2614919;47;20454;-82
2022/01/26 07:27:10;;;;;;;136.37;50.37;;;3.10;99.90;;;;;;2615113;54;20158;-82
2022/01/26 07:29:36;;;;;;;102.67;47.60;;;3.00;99.90;;;;;;2613992;47;20687;-83
2022/01/26 07:32:05;;;;;;;147.13;52.13;;;3.10;99.90;;;;;;2612804;47;20413;-82
2022/01/26 07:34:32;;;;;;;98.13;40.50;;;3.20;99.90;;;;;;2614080;39;20979;-82
2022/01/26 07:37:03;;;;;;;117.93;50.47;;;3.40;99.90;;;;;;2614647;54;20430;-82
2022/01/26 07:40:02;;;;;;;122.97;50.93;;;3.30;99.90;;;;;;2613920;54;20951;-82
2022/01/26 07:42:15;;;;;;;110.23;49.30;;;3.30;99.90;;;;;;2613723;54;20414;-81
2022/01/26 07:44:48;;;;;;;103.43;43.73;;;3.40;99.90;;;;;;2613628;47;20420;-81
2022/01/26 07:47:14;;;;;;;110.07;47.20;;;3.40;99.90;;;;;;2613873;39;20787;-82
2022/01/26 07:49:39;;;;;;;110.33;48.73;;;3.20;99.90;;;;;;2612010;47;20423;-81
2022/01/26 07:52:06;;;;;;;107.23;46.37;;;3.20;99.90;;;;;;2613355;47;20163;-83
2022/01/26 07:54:32;;;;;;;124.83;49.73;;;3.00;99.90;;;;;;2613941;39;20586;-81
2022/01/26 07:56:58;;;;;;;114.97;47.63;;;3.00;99.90;;;;;;2614112;54;20441;-82
2022/01/26 07:59:24;;;;;;;135.97;50.43;;;3.00;99.90;;;;;;2614652;47;20199;-81
2022/01/26 08:01:50;;;;;;;124.07;47.33;;;3.20;99.90;;;;;;2615600;54;20947;-83
2022/01/26 08:04:15;;;;;;;38.30;20.73;;;3.30;99.90;;;;;;2614848;39;21261;-82
2022/01/26 08:06:41;;;;;;;118.97;45.50;;;3.10;99.90;;;;;;2614478;47;20691;-82
2022/01/26 08:09:08;;;;;;;123.87;44.20;;;3.10;99.90;;;;;;2614315;47;20320;-83
2022/01/26 08:11:34;;;;;;;108.43;44.03;;;3.00;99.90;;;;;;2614501;47;20202;-82
2022/01/26 08:13:59;;;;;;;100.80;44.60;;;3.10;99.90;;;;;;2615268;54;20423;-81
2022/01/26 08:16:25;;;;;;;110.73;46.27;;;3.10;99.90;;;;;;2614029;46;20155;-82
2022/01/26 08:18:52;;;;;;;102.60;45.70;;;3.30;99.90;;;;;;2614390;54;20155;-83
2022/01/26 08:21:19;;;;;;;52.27;24.20;;;3.30;99.90;;;;;;2614134;54;20171;-81
2022/01/26 08:23:45;;;;;;;113.67;47.37;;;3.10;99.90;;;;;;2614888;39;22268;-82
2022/01/26 08:26:11;;;;;;;106.73;44.70;;;3.00;99.90;;;;;;2613308;47;20435;-83
2022/01/26 08:28:41;;;;;;;87.90;36.00;;;3.20;99.90;;;;;;2613870;47;20446;-83
2022/01/26 08:31:08;;;;;;;85.50;36.40;;;3.10;99.90;;;;;;2614282;54;20454;-82
2022/01/26 08:33:34;;;;;;;113.57;48.23;;;3.00;99.90;;;;;;2614779;54;20395;-82
2022/01/26 08:36:00;;;;;;;67.47;27.67;;;3.00;99.90;;;;;;2615023;54;21133;-81
2022/01/26 08:38:26;;;;;;;88.87;32.50;;;2.90;99.90;;;;;;2614605;39;21522;-81
2022/01/26 08:40:52;;;;;;;89.80;37.13;;;2.80;99.90;;;;;;2614276;47;20407;-83
2022/01/26 08:43:18;;;;;;;78.13;34.97;;;3.00;99.90;;;;;;2614066;47;20406;-81
2022/01/26 08:45:44;;;;;;;111.73;49.50;;;2.80;99.90;;;;;;2614249;47;20379;-82
2022/01/26 08:48:12;;;;;;;121.43;47.97;;;2.80;99.90;;;;;;2613949;47;20502;-82
2022/01/26 08:50:39;;;;;;;114.10;43.23;;;2.90;99.90;;;;;;2614392;54;20424;-82
2022/01/26 08:53:05;;;;;;;114.53;46.20;;;3.00;99.90;;;;;;2613573;54;20410;-81
2022/01/26 08:55:33;;;;;;;100.17;45.50;;;3.10;99.90;;;;;;2613865;39;20840;-82
2022/01/26 08:58:00;;;;;;;104.57;46.83;;;3.10;99.90;;;;;;2613492;47;20568;-81
2022/01/26 09:00:26;;;;;;;108.90;44.57;;;3.00;99.90;;;;;;2613801;54;20471;-82
2022/01/26 09:02:55;;;;;;;92.07;33.97;;;2.90;99.90;;;;;;2614275;54;20420;-82
2022/01/26 09:05:21;;;;;;;109.07;41.87;;;2.90;99.90;;;;;;2614058;54;20159;-81
2022/01/26 09:07:50;;;;;;;100.00;43.03;;;3.00;99.90;;;;;;2613934;47;21067;-82
2022/01/26 09:10:16;;;;;;;90.43;38.73;;;3.10;99.90;;;;;;2613324;47;21558;-82
2022/01/26 09:12:44;;;;;;;73.30;30.20;;;3.00;99.90;;;;;;2614521;54;20431;-81
2022/01/26 09:15:12;;;;;;;99.67;42.40;;;3.00;99.90;;;;;;2614382;47;22345;-82
2022/01/26 09:17:39;;;;;;;69.90;32.90;;;3.00;99.90;;;;;;2614995;47;21060;-82
2022/01/26 09:20:07;;;;;;;123.10;45.77;;;2.90;99.90;;;;;;2617116;47;20499;-81
2022/01/26 09:22:33;;;;;;;116.10;47.47;;;3.10;99.90;;;;;;2616140;54;20406;-82
2022/01/26 09:24:58;;;;;;;100.00;41.87;;;3.10;99.90;;;;;;2615390;54;20479;-82
2022/01/26 09:27:25;;;;;;;113.23;44.80;;;3.30;99.90;;;;;;2615688;47;20403;-82
2022/01/26 09:29:52;;;;;;;97.27;37.03;;;3.50;99.90;;;;;;2612965;54;20403;-83
2022/01/26 09:32:18;;;;;;;127.30;48.80;;;3.20;99.90;;;;;;2613629;54;20423;-81
2022/01/26 09:34:46;;;;;;;116.37;41.53;;;3.30;99.90;;;;;;2614586;54;20955;-82
2022/01/26 09:37:16;;;;;;;73.00;29.60;;;3.30;99.90;;;;;;2614328;39;20973;-82
2022/01/26 09:39:44;;;;;;;86.57;38.97;;;3.10;99.90;;;;;;2614292;47;21482;-82
2022/01/26 09:42:10;;;;;;;76.30;26.80;;;3.10;99.90;;;;;;2614014;47;20423;-83
2022/01/26 09:44:37;;;;;;;123.20;48.40;;;3.00;99.90;;;;;;2614288;47;20547;-82
2022/01/26 09:47:03;;;;;;;113.57;44.17;;;3.10;99.90;;;;;;2614970;54;20403;-83
2022/01/26 09:49:32;;;;;;;90.07;34.67;;;3.10;99.90;;;;;;2614006;47;21405;-82
2022/01/26 09:52:02;;;;;;;85.10;33.50;;;3.10;99.90;;;;;;2615572;47;20403;-82
2022/01/26 09:54:30;;;;;;;126.93;47.37;;;3.10;99.90;;;;;;2614945;54;20939;-82
2022/01/26 09:57:02;;;;;;;108.57;42.67;;;3.10;99.90;;;;;;2614026;47;20964;-82
2022/01/26 09:59:29;;;;;;;65.97;29.10;;;3.30;99.90;;;;;;2615554;47;20434;-83
2022/01/26 10:01:55;;;;;;;105.17;40.13;;;3.20;99.90;;;;;;2615565;46;20845;-83
2022/01/26 10:04:35;;;;;;;97.30;39.07;;;2.90;99.90;;;;;;2615424;46;20410;-82
2022/01/26 10:15:37;;;;;;;80.60;30.70;;;3.10;99.90;;;;;;2616549;54;20476;-83
2022/01/26 10:18:07;;;;;;;145.07;51.67;;;3.00;99.90;;;;;;2616011;47;21117;-81
2022/01/26 10:20:52;;;;;;;133.60;43.70;;;2.90;99.90;;;;;;2615857;47;20450;-83
2022/01/26 10:23:23;;;;;;;81.10;36.07;;;3.00;99.90;;;;;;2616182;39;20845;-82
2022/01/26 10:26:06;;;;;;;71.73;33.07;;;3.00;99.90;;;;;;2616092;39;20825;-81
2022/01/26 10:28:50;;;;;;;127.83;51.80;;;3.10;99.90;;;;;;2615636;47;20439;-82
2022/01/26 10:31:21;;;;;;;100.13;38.47;;;3.10;99.90;;;;;;2616314;54;20423;-82
2022/01/26 10:34:07;;;;;;;100.00;42.87;;;3.20;99.90;;;;;;2616157;54;20387;-82
2022/01/26 10:37:11;;;;;;;111.77;44.87;;;3.10;99.90;;;;;;2616517;39;20817;-82
2022/01/26 10:39:44;;;;;;;90.67;38.40;;;3.20;99.90;;;;;;2614581;51;20395;-82
2022/01/26 10:42:17;;;;;;;120.40;49.50;;;3.10;99.90;;;;;;2614928;54;20387;-81
2022/01/26 10:47:15;;;;;;;130.70;52.50;;;3.10;99.90;;;;;;2614417;54;20458;-82
2022/01/26 10:52:19;;;;;;;109.43;41.03;;;3.20;99.90;;;;;;2615223;39;20860;-82
2022/01/26 10:54:46;;;;;;;87.43;38.80;;;3.10;99.90;;;;;;2615460;54;20407;-83
2022/01/26 10:57:12;;;;;;;64.50;28.77;;;3.10;99.90;;;;;;2615090;39;20878;-82
2022/01/26 10:59:42;;;;;;;96.83;43.57;;;3.10;99.90;;;;;;2615613;39;20891;-82
2022/01/26 11:02:10;;;;;;;136.03;55.47;;;3.20;99.90;;;;;;2614665;54;20430;-81
2022/01/26 11:04:39;;;;;;;121.33;43.17;;;3.30;99.90;;;;;;2614712;39;20867;-82
2022/01/26 11:07:07;;;;;;;134.67;56.10;;;3.20;99.90;;;;;;2613977;54;20952;-82
2022/01/26 11:09:36;;;;;;;111.77;43.00;;;3.30;99.90;;;;;;2613690;54;20402;-81
2022/01/26 11:12:07;;;;;;;91.83;40.13;;;3.40;99.90;;;;;;2615301;47;20463;-83
2022/01/26 11:14:42;;;;;;;118.10;39.13;;;3.30;99.90;;;;;;2615177;54;20511;-82
2022/01/26 11:17:10;;;;;;;105.77;42.67;;;3.40;99.90;;;;;;2614775;47;20406;-82
2022/01/26 11:19:44;;;;;;;132.73;50.97;;;3.30;99.90;;;;;;2615360;47;20502;-82
2022/01/26 11:22:11;;;;;;;103.70;37.97;;;3.30;99.90;;;;;;2615255;54;20416;-82
2022/01/26 11:24:45;;;;;;;112.90;43.57;;;3.40;99.90;;;;;;2615072;47;20951;-82
2022/01/26 11:27:11;;;;;;;119.33;45.87;;;3.50;99.90;;;;;;2614643;47;20507;-82
2022/01/26 11:29:42;;;;;;;80.70;35.00;;;3.40;99.90;;;;;;2614858;48;20395;-83
2022/01/26 11:32:25;;;;;;;83.80;33.47;;;3.40;99.90;;;;;;2614864;47;20415;-82
2022/01/26 11:34:55;;;;;;;117.70;42.90;;;3.50;99.90;;;;;;2614904;54;20412;-83
2022/01/26 11:37:41;;;;;;;90.97;37.37;;;3.40;99.90;;;;;;2615564;39;21136;-81
2022/01/26 11:45:29;;;;;;;89.53;37.67;;;3.60;99.90;;;;;;2615891;47;20424;-81
2022/01/26 11:48:09;;;;;;;119.93;48.60;;;3.60;99.90;;;;;;2616447;47;20424;-81
2022/01/26 11:50:48;;;;;;;85.80;37.83;;;3.60;99.90;;;;;;2617452;39;20807;-81
2022/01/26 11:53:24;;;;;;;77.77;34.80;;;3.60;99.90;;;;;;2617307;47;20450;-80
2022/01/26 11:55:56;;;;;;;54.83;24.07;;;3.50;99.90;;;;;;2617577;54;20407;-82
2022/01/26 11:58:32;;;;;;;84.40;35.60;;;3.40;99.90;;;;;;2617620;39;20757;-81
2022/01/26 12:01:28;;;;;;;119.70;41.10;;;3.40;99.90;;;;;;2617491;46;20457;-80
2022/01/26 12:04:16;;;;;;;112.73;49.30;;;3.40;99.90;;;;;;2617379;54;20413;-81
2022/01/26 12:06:49;;;;;;;71.87;31.87;;;3.60;99.90;;;;;;2616521;46;20440;-83
2022/01/26 12:09:17;;;;;;;88.87;39.27;;;3.70;99.90;;;;;;2617213;54;20396;-82
2022/01/26 12:11:50;;;;;;;117.07;41.20;;;3.60;99.90;;;;;;2615397;47;20411;-82
2022/01/26 12:14:20;;;;;;;91.50;40.40;;;3.60;99.90;;;;;;2615317;54;20414;-80
2022/01/26 12:16:48;;;;;;;100.13;41.40;;;3.70;99.90;;;;;;2613965;39;21167;-79
2022/01/26 12:43:49;;;;;;;96.30;40.03;;;3.70;99.90;;;;;;2614727;47;20469;-81
2022/01/26 12:46:21;;;;;;;88.07;38.40;;;3.90;99.90;;;;;;2615616;47;20471;-83
2022/01/26 12:48:54;;;;;;;113.67;42.40;;;3.80;99.90;;;;;;2616316;47;20411;-81
2022/01/26 12:51:21;;;;;;;68.37;31.80;;;3.60;99.90;;;;;;2616579;39;20849;-80
2022/01/26 12:53:56;;;;;;;109.03;42.97;;;3.60;99.90;;;;;;2616609;47;20450;-81
2022/01/26 12:56:25;;;;;;;105.23;40.03;;;3.70;99.90;;;;;;2616617;47;20411;-82
2022/01/26 12:59:05;;;;;;;59.43;23.20;;;3.80;99.90;;;;;;2616720;47;20406;-84
2022/01/26 13:01:31;;;;;;;78.30;30.50;;;3.60;99.90;;;;;;2616595;47;20398;-83
2022/01/26 13:04:03;;;;;;;62.30;30.93;;;3.60;99.90;;;;;;2617203;39;20803;-81
2022/01/26 13:06:31;;;;;;;77.43;28.70;;;3.70;99.90;;;;;;2616252;47;20455;-83
2022/01/26 13:08:59;;;;;;;44.67;21.33;;;3.70;99.90;;;;;;2616901;31;20835;-82
2022/01/26 13:11:31;;;;;;;66.67;31.57;;;3.60;99.90;;;;;;2615927;47;20530;-81
2022/01/26 13:14:20;;;;;;;90.10;39.50;;;3.50;99.90;;;;;;2616415;47;20395;-83
2022/01/26 13:17:10;;;;;;;91.97;28.40;;;3.70;99.90;;;;;;2616827;39;20879;-82
2022/01/26 13:20:16;;;;;;;81.33;34.10;;;3.60;99.90;;;;;;2616771;54;20430;-82
2022/01/26 13:28:24;;;;;;;71.53;26.90;;;3.70;99.90;;;;;;2616398;47;20423;-83
2022/01/26 13:39:07;;;;;;;42.77;24.27;;;3.60;99.90;;;;;;2616845;54;20454;-82
2022/01/26 13:49:35;;;;;;;42.60;19.93;;;3.60;99.90;;;;;;2617129;47;20397;-82
2022/01/26 13:59:47;;;;;;;47.13;22.33;;;3.60;99.90;;;;;;2617719;54;20939;-83
2022/01/26 14:02:13;;;;;;;57.67;29.83;;;3.60;99.90;;;;;;2616885;47;20435;-82
2022/01/26 14:04:40;;;;;;;68.60;25.90;;;3.70;99.90;;;;;;2614895;54;20403;-82
2022/01/26 14:07:06;;;;;;;67.33;30.43;;;3.70;99.90;;;;;;2613763;54;20415;-82
2022/01/26 14:09:32;;;;;;;46.07;23.57;;;3.60;99.90;;;;;;2612108;47;20427;-81
2022/01/26 14:12:00;;;;;;;56.67;27.70;;;3.60;99.90;;;;;;2614452;47;20450;-82
2022/01/26 14:14:36;;;;;;;53.03;25.13;;;3.60;99.90;;;;;;2614850;54;21024;-81
2022/01/26 14:17:13;;;;;;;50.30;26.63;;;3.60;99.90;;;;;;2614990;39;20821;-81
2022/01/26 14:20:06;;;;;;;71.10;32.67;;;3.60;99.90;;;;;;2614670;47;20404;-82
2022/01/26 14:27:51;;;;;;;80.57;34.40;;;3.50;99.90;;;;;;2615342;54;20463;-82
2022/01/26 15:35:40;;;;;;;70.80;32.50;;;3.90;99.90;;;;;;2613461;47;20444;-81
2022/01/26 15:40:45;;;;;;;80.90;35.80;;;3.70;99.90;;;;;;2615249;54;20944;-84
2022/01/26 15:48:57;;;;;;;41.27;21.17;;;3.70;99.90;;;;;;2615150;39;20766;-82
2022/01/26 15:51:50;;;;;;;75.07;34.40;;;3.70;99.90;;;;;;2615481;51;20434;-82
2022/01/26 17:24:23;;;;;;;51.07;24.00;;;3.50;99.90;;;;;;2615110;39;20970;-82
2022/01/26 18:25:51;;;;;;;45.33;23.27;;;3.40;99.90;;;;;;2615149;54;20407;-82
2022/01/26 18:26:45;;;;;;;64.97;31.47;;;3.40;99.90;;;;;;2614434;54;20498;-81
2022/01/26 18:50:56;;;;;;;113.83;43.07;;;3.30;99.90;;;;;;2613489;47;20436;-83
2022/01/26 18:53:22;;;;;;;56.20;26.77;;;3.30;99.90;;;;;;2613268;47;20439;-81
2022/01/26 18:55:48;;;;;;;72.70;32.63;;;3.30;99.90;;;;;;2613054;47;20554;-80
2022/01/26 18:58:14;;;;;;;64.80;33.47;;;3.30;99.90;;;;;;2613789;54;20161;-81
2022/01/26 19:00:44;;;;;;;56.17;24.50;;;3.30;99.90;;;;;;2614513;51;20163;-80
2022/01/26 19:03:10;;;;;;;82.40;35.80;;;3.30;99.90;;;;;;2614271;54;20265;-83
2022/01/26 19:05:36;;;;;;;47.67;23.90;;;3.30;99.90;;;;;;2613433;47;20526;-81
2022/01/26 19:08:02;;;;;;;68.00;31.10;;;3.40;99.90;;;;;;2614226;54;20411;-81
2022/01/26 19:10:28;;;;;;;58.50;28.30;;;3.30;99.90;;;;;;2614577;39;20609;-82
2022/01/26 19:12:54;;;;;;;59.03;27.57;;;3.30;99.90;;;;;;2613817;54;20162;-82
2022/01/26 19:15:24;;;;;;;87.33;35.27;;;3.20;99.90;;;;;;2614442;47;20428;-82
2022/01/26 19:25:32;;;;;;;45.20;18.27;;;3.30;99.90;;;;;;2614948;54;20222;-84
2022/01/26 19:46:48;;;;;;;63.53;32.10;;;3.20;99.90;;;;;;2613708;47;20407;-83
2022/01/26 19:52:18;;;;;;;47.67;20.13;;;3.20;99.90;;;;;;2612847;47;20424;-82
2022/01/26 19:54:49;;;;;;;61.87;28.10;;;3.10;99.90;;;;;;2613988;54;20440;-82
2022/01/26 19:57:17;;;;;;;83.50;34.50;;;3.10;99.90;;;;;;2614817;54;20999;-83
2022/01/26 19:59:43;;;;;;;64.53;30.37;;;3.10;99.90;;;;;;2614633;54;20431;-82
2022/01/26 20:02:09;;;;;;;46.13;21.60;;;3.10;99.90;;;;;;2613788;47;20553;-82
2022/01/26 20:04:39;;;;;;;63.83;26.90;;;3.10;99.90;;;;;;2615129;54;20396;-82
2022/01/26 20:07:20;;;;;;;74.00;33.20;;;3.10;99.90;;;;;;2614756;47;20423;-84
2022/01/26 20:09:55;;;;;;;39.37;19.83;;;3.00;99.90;;;;;;2614995;54;20412;-82